Time;durP1;ratioP1;P1;durP2;ratioP2;P2;SDS_P1;SDS_P2;PMS_P1;PMS_P2;Temp;Humidity;BMP_temperature;BMP_pressure;BME280_temperature;BME280_humidity;BME280_pressure;Samples;Min_cycle;Max_cycle;Signal;HPM_P1;HPM_P2
2021/03/01 00:01:01;;;;;;;35.17;22.03;;;4.60;97.00;;;;;;4422107;32;20178;-64
2021/03/01 00:03:28;;;;;;;34.30;22.47;;;4.70;97.00;;;;;;4422376;32;20207;-66
2021/03/01 00:05:56;;;;;;;32.30;21.60;;;4.70;97.00;;;;;;4422377;32;20209;-65
2021/03/01 00:08:23;;;;;;;35.53;22.30;;;4.70;96.90;;;;;;4420841;32;20583;-63
2021/03/01 00:10:49;;;;;;;34.03;22.10;;;4.80;96.90;;;;;;4411856;32;20204;-64
2021/03/01 00:13:16;;;;;;;39.20;24.60;;;4.80;96.90;;;;;;4421363;32;20217;-64
2021/03/01 00:15:42;;;;;;;40.57;24.00;;;4.80;96.90;;;;;;4422727;32;20155;-64
2021/03/01 00:18:09;;;;;;;39.67;23.50;;;4.80;97.00;;;;;;4421105;32;20185;-63
2021/03/01 00:20:36;;;;;;;44.73;26.03;;;4.80;97.10;;;;;;4416365;32;20582;-63
2021/03/01 00:23:02;;;;;;;41.63;26.37;;;4.80;97.10;;;;;;4414554;32;20207;-66
2021/03/01 00:25:29;;;;;;;42.03;25.53;;;4.70;97.20;;;;;;4418798;32;20223;-65
2021/03/01 00:27:55;;;;;;;45.60;26.70;;;4.80;97.30;;;;;;4421783;32;20181;-64
2021/03/01 00:30:23;;;;;;;41.53;25.73;;;4.80;97.20;;;;;;4422233;32;20170;-63
2021/03/01 00:32:49;;;;;;;42.57;26.40;;;4.90;97.20;;;;;;4418626;32;20173;-64
2021/03/01 00:35:17;;;;;;;44.97;25.40;;;4.90;97.10;;;;;;4410780;32;20221;-64
2021/03/01 00:37:44;;;;;;;44.37;25.47;;;4.90;97.10;;;;;;4418677;32;20148;-63
2021/03/01 00:40:11;;;;;;;49.57;28.73;;;4.90;97.10;;;;;;4421410;32;20179;-64
2021/03/01 00:42:37;;;;;;;49.60;27.73;;;4.90;97.10;;;;;;4419328;32;20218;-64
2021/03/01 00:45:07;;;;;;;46.60;26.30;;;4.90;97.20;;;;;;4422083;32;20159;-63
2021/03/01 00:47:34;;;;;;;47.87;27.57;;;4.90;97.20;;;;;;4411481;32;20520;-63
2021/03/01 00:50:00;;;;;;;50.90;29.00;;;4.90;97.20;;;;;;4422780;32;20171;-65
2021/03/01 00:52:27;;;;;;;48.07;27.33;;;4.90;97.20;;;;;;4422468;32;20630;-65
2021/03/01 00:54:55;;;;;;;47.67;28.00;;;5.00;97.20;;;;;;4421615;32;20221;-64
2021/03/01 00:57:21;;;;;;;51.80;27.37;;;5.00;97.10;;;;;;4411019;32;20198;-63
2021/03/01 00:59:47;;;;;;;45.33;26.47;;;5.00;97.10;;;;;;4422089;32;20617;-64
2021/03/01 01:02:13;;;;;;;45.83;26.77;;;5.00;97.10;;;;;;4419690;32;20209;-65
2021/03/01 01:04:40;;;;;;;39.93;25.90;;;5.00;97.10;;;;;;4421224;32;20179;-66
2021/03/01 01:07:06;;;;;;;39.70;23.60;;;5.10;97.00;;;;;;4420989;32;20588;-63
2021/03/01 01:09:35;;;;;;;46.03;26.37;;;5.10;96.80;;;;;;4422129;32;20148;-63
2021/03/01 01:12:02;;;;;;;44.00;26.33;;;5.10;96.80;;;;;;4420095;32;20223;-63
2021/03/01 01:14:28;;;;;;;41.57;24.40;;;5.00;96.80;;;;;;4420739;32;20204;-64
2021/03/01 01:16:55;;;;;;;45.77;26.43;;;5.10;96.80;;;;;;4416776;32;20183;-63
2021/03/01 01:19:23;;;;;;;43.10;24.03;;;5.10;96.80;;;;;;4421753;32;20199;-64
2021/03/01 01:21:49;;;;;;;39.00;22.57;;;5.20;96.80;;;;;;4421427;32;20214;-63
2021/03/01 01:24:15;;;;;;;36.80;21.83;;;5.10;96.60;;;;;;4423077;32;20184;-64
2021/03/01 01:26:42;;;;;;;34.03;21.00;;;5.10;96.60;;;;;;4420403;32;20166;-64
2021/03/01 01:29:09;;;;;;;36.20;20.80;;;5.10;96.60;;;;;;4419640;32;20269;-64
2021/03/01 01:31:35;;;;;;;35.93;21.77;;;5.10;96.60;;;;;;4421542;32;20151;-65
2021/03/01 01:34:02;;;;;;;38.67;20.90;;;5.10;96.60;;;;;;4416084;32;20181;-65
2021/03/01 01:36:28;;;;;;;37.77;20.40;;;5.10;96.70;;;;;;4420513;32;20254;-65
2021/03/01 01:38:54;;;;;;;36.50;21.13;;;5.10;96.50;;;;;;4420418;32;20198;-63
2021/03/01 01:41:20;;;;;;;42.47;22.37;;;5.10;96.50;;;;;;4419041;32;20209;-64
2021/03/01 01:43:47;;;;;;;38.33;21.17;;;5.10;96.50;;;;;;4416298;32;20172;-65
2021/03/01 01:46:15;;;;;;;45.60;23.83;;;5.10;96.60;;;;;;4418014;32;20209;-64
2021/03/01 01:48:41;;;;;;;38.00;22.07;;;5.10;96.70;;;;;;4410491;32;20193;-64
2021/03/01 01:51:08;;;;;;;40.60;22.43;;;5.20;96.60;;;;;;4419842;32;20576;-64
2021/03/01 01:53:34;;;;;;;35.83;21.13;;;5.20;96.60;;;;;;4419958;32;20169;-65
2021/03/01 01:56:01;;;;;;;34.53;21.03;;;5.20;96.40;;;;;;4413988;32;20195;-63
2021/03/01 01:58:27;;;;;;;36.27;21.67;;;5.20;96.30;;;;;;4418816;32;20236;-64
2021/03/01 02:00:54;;;;;;;37.73;22.63;;;5.20;96.30;;;;;;4419864;32;20159;-64
2021/03/01 02:03:41;;;;;;;37.47;21.20;;;5.10;96.50;;;;;;4413716;32;20194;-64
2021/03/01 02:06:17;;;;;;;37.03;22.43;;;5.10;96.60;;;;;;4412221;32;20221;-63
2021/03/01 02:09:01;;;;;;;34.73;22.00;;;5.10;96.60;;;;;;4416520;32;20557;-63
2021/03/01 02:11:34;;;;;;;36.87;22.00;;;5.10;96.70;;;;;;4414443;32;20683;-65
2021/03/01 02:14:11;;;;;;;40.97;21.67;;;5.10;96.60;;;;;;4415089;32;20195;-64
2021/03/01 02:16:37;;;;;;;36.47;21.60;;;5.10;96.60;;;;;;4418442;32;20195;-65
2021/03/01 02:19:06;;;;;;;36.13;21.90;;;5.20;96.60;;;;;;4409607;32;20168;-64
2021/03/01 02:21:38;;;;;;;39.73;21.90;;;5.20;96.60;;;;;;4414365;32;20656;-64
2021/03/01 02:24:05;;;;;;;32.57;20.83;;;5.20;96.50;;;;;;4413983;32;20561;-64
2021/03/01 02:26:35;;;;;;;40.47;22.87;;;5.20;96.40;;;;;;4417511;32;20170;-65
2021/03/01 02:29:05;;;;;;;35.53;21.43;;;5.30;96.40;;;;;;4419491;32;20175;-64
2021/03/01 02:31:32;;;;;;;36.73;20.87;;;5.30;96.20;;;;;;4421211;32;20531;-63
2021/03/01 02:34:01;;;;;;;39.03;22.13;;;5.20;96.30;;;;;;4419548;32;20182;-63
2021/03/01 02:36:31;;;;;;;37.87;21.37;;;5.30;96.30;;;;;;4420821;32;20297;-64
2021/03/01 02:39:03;;;;;;;30.40;19.20;;;5.40;96.30;;;;;;4417850;32;20195;-63
2021/03/01 02:41:30;;;;;;;37.90;20.23;;;5.30;96.10;;;;;;4386045;32;20163;-65
2021/03/01 02:43:57;;;;;;;37.63;20.03;;;5.30;96.00;;;;;;4409324;32;20640;-63
2021/03/01 02:46:24;;;;;;;38.30;20.87;;;5.20;95.90;;;;;;4419620;32;20202;-64
2021/03/01 02:48:51;;;;;;;32.40;18.13;;;5.20;96.00;;;;;;4420763;32;20172;-64
2021/03/01 02:51:22;;;;;;;37.07;20.60;;;5.10;95.90;;;;;;4417564;32;20190;-65
2021/03/01 02:53:48;;;;;;;31.03;18.73;;;5.10;96.10;;;;;;4417218;32;20294;-64
2021/03/01 02:56:17;;;;;;;33.33;19.10;;;5.10;96.00;;;;;;4411185;32;20193;-64
2021/03/01 02:58:45;;;;;;;36.77;20.40;;;5.10;96.00;;;;;;4420063;32;20163;-63
2021/03/01 03:01:14;;;;;;;37.03;20.70;;;5.10;96.00;;;;;;4420059;32;20154;-64
2021/03/01 03:03:41;;;;;;;33.20;19.90;;;5.00;96.00;;;;;;4419990;32;20219;-64
2021/03/01 03:06:11;;;;;;;39.13;22.40;;;5.00;96.10;;;;;;4419178;32;20642;-63
2021/03/01 03:08:39;;;;;;;42.47;22.23;;;5.00;96.20;;;;;;4420021;32;20234;-66
2021/03/01 03:11:06;;;;;;;34.50;21.37;;;5.00;96.20;;;;;;4420372;32;20588;-65
2021/03/01 03:13:34;;;;;;;36.97;20.70;;;5.10;96.20;;;;;;4420643;32;20167;-64
2021/03/01 03:16:02;;;;;;;35.77;21.47;;;5.10;96.00;;;;;;4418615;32;20185;-64
2021/03/01 03:18:29;;;;;;;37.77;20.80;;;5.20;96.00;;;;;;4415849;32;20186;-64
2021/03/01 03:20:57;;;;;;;38.13;20.73;;;5.20;95.90;;;;;;4420514;32;20168;-65
2021/03/01 03:23:24;;;;;;;33.37;20.20;;;5.20;96.00;;;;;;4414969;32;20217;-64
2021/03/01 03:25:50;;;;;;;34.17;20.13;;;5.20;95.90;;;;;;4421832;32;20174;-64
2021/03/01 03:28:16;;;;;;;36.40;19.60;;;5.20;95.90;;;;;;4419860;32;20170;-63
2021/03/01 03:30:44;;;;;;;36.90;21.57;;;5.20;95.90;;;;;;4407191;32;20653;-64
2021/03/01 03:33:11;;;;;;;38.13;21.03;;;5.20;96.00;;;;;;4407532;32;20221;-64
2021/03/01 03:35:37;;;;;;;36.30;21.07;;;5.20;95.90;;;;;;4415074;32;20185;-64
2021/03/01 03:38:06;;;;;;;36.00;20.87;;;5.20;95.90;;;;;;4418465;32;20227;-64
2021/03/01 03:40:33;;;;;;;40.10;23.30;;;5.20;95.90;;;;;;4418902;32;20195;-64
2021/03/01 03:43:00;;;;;;;40.17;20.87;;;5.20;95.90;;;;;;4404960;32;20179;-64
2021/03/01 03:45:27;;;;;;;40.00;23.00;;;5.20;96.00;;;;;;4420338;32;20252;-64
2021/03/01 03:47:57;;;;;;;38.43;21.80;;;5.20;95.90;;;;;;4419763;32;20182;-63
2021/03/01 03:50:26;;;;;;;36.57;20.43;;;5.20;96.00;;;;;;4405535;32;20163;-64
2021/03/01 03:52:57;;;;;;;39.50;22.77;;;5.20;96.10;;;;;;4414509;32;20235;-65
2021/03/01 03:55:23;;;;;;;38.37;22.07;;;5.30;96.10;;;;;;4416691;32;20551;-64
2021/03/01 03:57:55;;;;;;;40.93;21.63;;;5.30;95.90;;;;;;4412597;32;20159;-63
2021/03/01 04:00:23;;;;;;;38.23;22.87;;;5.30;96.00;;;;;;4417974;32;20167;-65
2021/03/01 04:02:52;;;;;;;38.17;22.27;;;5.30;95.90;;;;;;4415106;32;20567;-63
2021/03/01 04:05:21;;;;;;;41.07;23.80;;;5.30;95.90;;;;;;4414997;32;20180;-64
2021/03/01 04:07:50;;;;;;;41.80;24.03;;;5.40;95.90;;;;;;4409008;32;20203;-64
2021/03/01 04:10:17;;;;;;;44.47;24.10;;;5.30;95.60;;;;;;4421791;32;20199;-64
2021/03/01 04:12:48;;;;;;;41.13;23.37;;;5.40;95.70;;;;;;4421792;32;20182;-63
2021/03/01 04:15:17;;;;;;;44.30;24.23;;;5.30;95.70;;;;;;4421610;32;20259;-64
2021/03/01 04:17:46;;;;;;;50.37;26.57;;;5.40;95.60;;;;;;4421779;32;20579;-62
2021/03/01 04:20:15;;;;;;;48.93;25.00;;;5.30;95.30;;;;;;4422129;32;20163;-63
2021/03/01 04:22:43;;;;;;;44.20;24.47;;;5.30;95.30;;;;;;4421306;32;20167;-64
2021/03/01 04:25:10;;;;;;;49.80;27.63;;;5.30;95.50;;;;;;4421808;32;20165;-64
2021/03/01 04:27:38;;;;;;;51.77;27.73;;;5.30;95.50;;;;;;4415221;32;20506;-63
2021/03/01 04:30:09;;;;;;;44.23;24.27;;;5.30;95.50;;;;;;4417198;32;20159;-64
2021/03/01 04:32:37;;;;;;;49.93;27.50;;;5.30;95.40;;;;;;4417604;32;20198;-64
2021/03/01 04:35:06;;;;;;;48.23;25.93;;;5.30;95.40;;;;;;4418110;32;20179;-64
2021/03/01 04:37:33;;;;;;;53.07;27.67;;;5.30;95.30;;;;;;4418775;32;20159;-65
2021/03/01 04:40:00;;;;;;;48.13;26.17;;;5.30;95.30;;;;;;4417851;32;20247;-63
2021/03/01 04:42:30;;;;;;;48.07;26.47;;;5.20;95.30;;;;;;4423362;32;20182;-65
2021/03/01 04:44:56;;;;;;;50.83;27.27;;;5.20;95.30;;;;;;4415365;32;20252;-65
2021/03/01 04:47:25;;;;;;;51.87;28.07;;;5.20;95.20;;;;;;4409254;32;20175;-64
2021/03/01 04:49:52;;;;;;;52.97;27.40;;;5.20;95.30;;;;;;4421243;32;20659;-63
2021/03/01 04:52:19;;;;;;;49.87;26.70;;;5.20;95.30;;;;;;4419888;32;20178;-64
2021/03/01 04:54:46;;;;;;;49.67;27.53;;;5.20;95.20;;;;;;4410143;32;20533;-65
2021/03/01 04:57:15;;;;;;;51.07;26.20;;;5.20;95.10;;;;;;4422319;32;20183;-64
2021/03/01 04:59:42;;;;;;;52.47;28.23;;;5.10;95.10;;;;;;4420641;32;20171;-64
2021/03/01 05:02:10;;;;;;;52.20;28.67;;;5.00;95.30;;;;;;4418617;32;20228;-64
2021/03/01 05:04:36;;;;;;;51.10;27.07;;;5.00;95.30;;;;;;4421833;32;20186;-64
2021/03/01 05:07:04;;;;;;;55.93;29.90;;;5.00;95.40;;;;;;4418984;32;20203;-64
2021/03/01 05:09:31;;;;;;;59.17;29.80;;;5.00;95.30;;;;;;4418206;32;20236;-64
2021/03/01 05:11:58;;;;;;;55.03;30.17;;;4.90;95.50;;;;;;4416176;32;20661;-65
2021/03/01 05:14:25;;;;;;;52.77;27.47;;;4.90;95.60;;;;;;4420493;32;20179;-64
2021/03/01 05:16:53;;;;;;;53.00;28.90;;;5.00;95.60;;;;;;4411936;32;20222;-64
2021/03/01 05:19:19;;;;;;;48.47;26.70;;;5.00;95.40;;;;;;4421537;32;20163;-64
2021/03/01 05:21:48;;;;;;;50.30;28.10;;;5.00;95.40;;;;;;4411028;32;20590;-64
2021/03/01 05:24:14;;;;;;;53.93;27.50;;;5.00;95.30;;;;;;4421428;32;20177;-65
2021/03/01 05:26:40;;;;;;;57.40;30.07;;;5.00;95.30;;;;;;4405705;32;20448;-63
2021/03/01 05:29:07;;;;;;;57.37;30.10;;;5.00;95.20;;;;;;4421531;32;20179;-64
2021/03/01 05:31:35;;;;;;;50.00;27.30;;;5.00;95.40;;;;;;4419259;32;20227;-64
2021/03/01 05:34:01;;;;;;;52.20;28.40;;;4.90;95.40;;;;;;4419717;32;20167;-64
2021/03/01 05:36:27;;;;;;;53.47;28.97;;;4.90;95.50;;;;;;4412185;32;20178;-64
2021/03/01 05:38:53;;;;;;;53.37;27.93;;;4.90;95.60;;;;;;4418092;32;20217;-64
2021/03/01 05:41:20;;;;;;;53.60;27.43;;;4.80;95.70;;;;;;4414910;32;20183;-63
2021/03/01 05:43:48;;;;;;;56.33;28.27;;;4.90;95.60;;;;;;4420745;32;20297;-63
2021/03/01 05:46:15;;;;;;;56.07;28.70;;;4.90;95.50;;;;;;4417579;32;20214;-63
2021/03/01 05:48:42;;;;;;;53.00;29.03;;;4.90;95.30;;;;;;4420263;32;20166;-63
2021/03/01 05:51:09;;;;;;;49.53;26.20;;;4.90;95.50;;;;;;4422621;32;20219;-65
2021/03/01 05:53:38;;;;;;;52.37;26.80;;;4.80;95.20;;;;;;4417782;32;20257;-63
2021/03/01 05:56:08;;;;;;;52.07;26.63;;;4.80;95.30;;;;;;4421131;32;20165;-63
2021/03/01 05:58:40;;;;;;;55.93;28.20;;;4.70;95.40;;;;;;4419424;32;20617;-62
2021/03/01 06:01:08;;;;;;;51.47;26.53;;;4.70;95.60;;;;;;4414245;32;20614;-64
2021/03/01 06:03:36;;;;;;;52.20;27.17;;;4.70;95.60;;;;;;4420411;32;20163;-63
2021/03/01 06:06:04;;;;;;;51.80;27.30;;;4.70;95.60;;;;;;4420716;32;20172;-63
2021/03/01 06:08:31;;;;;;;54.53;28.47;;;4.70;95.60;;;;;;4421745;32;20163;-65
2021/03/01 06:10:57;;;;;;;53.10;27.40;;;4.70;95.60;;;;;;4420727;32;20160;-65
2021/03/01 06:13:24;;;;;;;51.03;26.53;;;4.80;95.60;;;;;;4413653;32;20238;-65
2021/03/01 06:15:53;;;;;;;50.17;27.27;;;4.80;95.40;;;;;;4410078;32;20181;-65
2021/03/01 06:18:22;;;;;;;49.27;26.17;;;4.90;95.30;;;;;;4419105;32;20167;-64
2021/03/01 06:20:52;;;;;;;51.03;27.63;;;4.80;95.30;;;;;;4419405;32;20218;-64
2021/03/01 06:23:30;;;;;;;47.40;24.97;;;4.80;95.20;;;;;;4419528;32;20213;-65
2021/03/01 06:26:29;;;;;;;48.77;25.93;;;4.80;95.30;;;;;;4418887;32;20211;-64
2021/03/01 06:29:06;;;;;;;44.07;24.67;;;4.70;95.20;;;;;;4420204;32;20231;-65
2021/03/01 06:39:26;;;;;;;51.13;24.13;;;4.70;95.10;;;;;;4362689;27;20195;-63
2021/03/01 06:41:53;;;;;;;48.90;25.23;;;4.70;95.10;;;;;;4345095;33;20302;-65
2021/03/01 06:44:22;;;;;;;47.80;25.30;;;4.70;95.10;;;;;;4337653;33;20938;-64
2021/03/01 06:47:15;;;;;;;42.50;24.00;;;4.70;95.00;;;;;;4340064;33;20152;-65
2021/03/01 06:49:51;;;;;;;39.77;22.93;;;4.70;95.10;;;;;;4336816;33;20523;-63
2021/03/01 06:52:36;;;;;;;42.27;22.83;;;4.80;95.00;;;;;;4342172;33;20211;-66
2021/03/01 06:55:09;;;;;;;45.97;23.97;;;4.80;95.00;;;;;;4338391;33;20204;-67
2021/03/01 06:57:36;;;;;;;40.10;22.80;;;4.90;94.70;;;;;;4339620;33;20581;-63
2021/03/01 07:00:04;;;;;;;40.70;25.10;;;4.90;94.60;;;;;;4337261;33;20177;-67
2021/03/01 07:02:37;;;;;;;46.70;24.90;;;5.00;94.60;;;;;;4337143;33;20166;-67
2021/03/01 07:05:05;;;;;;;42.00;24.57;;;5.00;94.40;;;;;;4337730;33;20632;-66
2021/03/01 07:07:35;;;;;;;48.17;26.37;;;5.00;94.40;;;;;;4336518;33;20584;-68
2021/03/01 07:10:04;;;;;;;43.77;25.97;;;5.00;94.50;;;;;;4338021;33;20195;-65
2021/03/01 07:12:42;;;;;;;46.93;25.53;;;4.90;94.30;;;;;;4334581;33;20606;-64
2021/03/01 07:15:10;;;;;;;47.90;26.57;;;4.90;94.50;;;;;;4338420;33;20520;-66
2021/03/01 07:17:39;;;;;;;44.87;24.03;;;4.90;94.50;;;;;;4337491;33;20182;-64
2021/03/01 07:20:09;;;;;;;42.57;23.53;;;4.90;94.40;;;;;;4334097;33;20315;-64
2021/03/01 07:22:58;;;;;;;41.53;24.57;;;4.90;94.30;;;;;;4332522;33;20504;-65
2021/03/01 07:25:28;;;;;;;40.30;22.80;;;4.90;94.10;;;;;;4328854;33;20232;-67
2021/03/01 07:28:14;;;;;;;42.83;23.43;;;4.90;94.00;;;;;;4331244;33;20254;-67
2021/03/01 07:30:45;;;;;;;40.83;21.53;;;4.90;93.90;;;;;;4330524;33;20175;-67
2021/03/01 07:33:13;;;;;;;40.60;21.60;;;4.90;93.90;;;;;;4336223;33;20166;-64
2021/03/01 07:35:40;;;;;;;38.43;21.43;;;4.90;93.90;;;;;;4332822;33;20198;-65
2021/03/01 07:38:09;;;;;;;35.67;19.97;;;4.90;93.80;;;;;;4338946;33;20216;-65
2021/03/01 07:40:36;;;;;;;38.20;21.43;;;4.90;93.50;;;;;;4340555;33;20155;-64
2021/03/01 07:43:04;;;;;;;36.03;20.53;;;4.90;93.70;;;;;;4338447;33;20208;-65
2021/03/01 07:45:31;;;;;;;37.07;21.63;;;4.90;93.80;;;;;;4340262;33;20165;-64
2021/03/01 07:48:18;;;;;;;40.33;22.00;;;5.00;93.80;;;;;;4338249;33;20480;-65
2021/03/01 07:50:48;;;;;;;36.10;20.83;;;5.00;93.60;;;;;;4337824;33;20306;-65
2021/03/01 07:53:43;;;;;;;36.33;21.60;;;5.10;93.50;;;;;;4338051;33;20153;-68
2021/03/01 07:56:47;;;;;;;39.27;20.93;;;5.10;93.20;;;;;;4338277;33;20269;-64
2021/03/01 07:59:33;;;;;;;37.53;20.37;;;5.10;93.20;;;;;;4335973;33;20148;-66
2021/03/01 08:02:14;;;;;;;38.10;21.93;;;5.00;93.20;;;;;;4334644;33;20195;-66
2021/03/01 08:04:47;;;;;;;37.23;20.47;;;5.00;93.10;;;;;;4338659;33;20164;-66
2021/03/01 08:07:16;;;;;;;34.97;20.27;;;4.90;93.20;;;;;;4338130;33;20165;-66
2021/03/01 08:09:51;;;;;;;37.80;20.40;;;4.90;93.50;;;;;;4338772;33;20613;-66
2021/03/01 08:12:55;;;;;;;33.53;19.00;;;5.00;93.20;;;;;;4336781;33;20220;-64
2021/03/01 08:15:42;;;;;;;33.33;19.20;;;5.00;92.90;;;;;;4342078;33;20582;-66
2021/03/01 08:18:10;;;;;;;33.10;18.83;;;4.80;92.80;;;;;;4341352;33;20169;-65
2021/03/01 08:20:57;;;;;;;31.17;17.70;;;4.70;93.20;;;;;;4338449;33;20200;-66
2021/03/01 08:23:38;;;;;;;33.77;18.47;;;4.70;93.40;;;;;;4336251;33;20239;-65
2021/03/01 08:26:07;;;;;;;34.57;18.60;;;4.60;93.30;;;;;;4336073;33;20217;-67
2021/03/01 08:28:49;;;;;;;33.70;19.23;;;4.40;93.50;;;;;;4337953;33;20221;-66
2021/03/01 08:31:31;;;;;;;32.07;18.90;;;4.40;93.80;;;;;;4335712;33;20231;-64
2021/03/01 08:34:30;;;;;;;36.73;18.47;;;4.40;93.90;;;;;;4337353;33;20229;-64
2021/03/01 08:36:57;;;;;;;35.23;20.27;;;4.50;93.90;;;;;;4337541;33;20271;-66
2021/03/01 08:39:57;;;;;;;31.10;18.33;;;4.50;94.00;;;;;;4335998;33;20166;-65
2021/03/01 08:42:50;;;;;;;36.13;19.10;;;4.60;93.90;;;;;;4336346;33;20239;-66
2021/03/01 08:45:31;;;;;;;34.07;18.50;;;4.50;93.80;;;;;;4338974;33;20200;-66
2021/03/01 08:48:01;;;;;;;36.23;19.40;;;4.60;93.80;;;;;;4339403;33;20223;-66
2021/03/01 08:50:30;;;;;;;34.40;17.90;;;4.50;93.70;;;;;;4339482;33;20190;-67
2021/03/01 08:52:56;;;;;;;36.57;19.13;;;4.50;93.90;;;;;;4336424;33;20240;-66
2021/03/01 08:55:23;;;;;;;39.03;19.60;;;4.60;93.90;;;;;;4337182;33;20227;-64
2021/03/01 08:57:58;;;;;;;35.10;20.23;;;4.70;93.80;;;;;;4335366;33;20200;-65
2021/03/01 09:00:25;;;;;;;39.50;20.43;;;4.80;93.80;;;;;;4337757;33;20173;-64
2021/03/01 09:03:18;;;;;;;33.80;18.57;;;5.00;93.50;;;;;;4335503;33;20252;-66
2021/03/01 09:05:47;;;;;;;37.50;19.43;;;5.20;93.30;;;;;;4337212;33;20166;-66
2021/03/01 09:08:14;;;;;;;33.73;18.80;;;5.30;93.10;;;;;;4337957;33;20644;-65
2021/03/01 09:10:44;;;;;;;36.57;18.63;;;5.40;92.60;;;;;;4337305;33;20269;-64
2021/03/01 09:13:17;;;;;;;31.93;17.57;;;5.40;92.60;;;;;;4335543;33;20220;-64
2021/03/01 09:15:46;;;;;;;33.07;17.70;;;5.20;92.50;;;;;;4334583;33;20268;-66
2021/03/01 09:18:14;;;;;;;34.73;16.10;;;5.20;92.70;;;;;;4337029;33;20154;-67
2021/03/01 09:20:50;;;;;;;30.33;18.00;;;5.30;92.70;;;;;;4335916;33;20244;-64
2021/03/01 09:23:34;;;;;;;34.07;18.43;;;5.40;92.80;;;;;;4336410;33;20169;-64
2021/03/01 09:26:01;;;;;;;33.40;19.03;;;5.40;92.60;;;;;;4333405;33;20163;-66
2021/03/01 09:28:34;;;;;;;36.10;20.00;;;5.50;92.50;;;;;;4333385;33;20188;-65
2021/03/01 09:31:03;;;;;;;35.50;19.47;;;5.70;92.30;;;;;;4334129;33;20221;-65
2021/03/01 09:33:31;;;;;;;31.70;18.77;;;5.70;92.50;;;;;;4335431;33;20742;-64
2021/03/01 09:36:09;;;;;;;36.83;19.97;;;5.80;92.00;;;;;;4333926;33;20200;-65
2021/03/01 09:38:37;;;;;;;32.83;18.60;;;5.90;92.00;;;;;;4333384;33;20219;-66
2021/03/01 09:41:05;;;;;;;36.60;19.00;;;6.00;91.70;;;;;;4333662;33;20181;-65
2021/03/01 09:43:32;;;;;;;36.53;19.77;;;6.00;91.40;;;;;;4331302;33;20160;-65
2021/03/01 09:46:00;;;;;;;33.07;18.10;;;6.00;91.70;;;;;;4335015;33;20217;-64
2021/03/01 09:48:28;;;;;;;34.00;18.87;;;6.00;91.70;;;;;;4333478;33;20499;-64
2021/03/01 09:50:56;;;;;;;30.50;16.90;;;6.00;91.70;;;;;;4332879;33;20169;-66
2021/03/01 09:53:24;;;;;;;27.97;15.67;;;6.00;91.80;;;;;;4333201;33;20581;-66
2021/03/01 09:55:52;;;;;;;30.57;17.40;;;6.20;91.70;;;;;;4333896;33;20169;-64
2021/03/01 09:58:29;;;;;;;34.43;18.33;;;6.40;91.20;;;;;;4333940;33;20176;-65
2021/03/01 10:01:09;;;;;;;35.30;17.70;;;6.60;91.00;;;;;;4334131;33;20216;-66
2021/03/01 10:03:40;;;;;;;31.87;17.97;;;6.60;90.60;;;;;;4336794;33;20183;-66
2021/03/01 10:06:08;;;;;;;37.07;18.53;;;6.70;90.60;;;;;;4334296;33;20259;-65
2021/03/01 10:08:35;;;;;;;34.73;18.63;;;6.70;90.70;;;;;;4334574;33;20165;-68
2021/03/01 10:11:02;;;;;;;33.13;17.77;;;6.70;90.30;;;;;;4335555;33;20232;-64
2021/03/01 10:13:32;;;;;;;34.50;20.20;;;6.60;90.60;;;;;;4336548;33;20160;-65
2021/03/01 10:15:59;;;;;;;31.37;17.57;;;6.50;90.80;;;;;;4336552;33;20219;-66
2021/03/01 10:18:34;;;;;;;29.10;16.53;;;6.50;90.80;;;;;;4335743;32;20172;-66
2021/03/01 10:21:02;;;;;;;28.80;15.27;;;6.60;90.70;;;;;;4333210;33;20219;-66
2021/03/01 10:23:36;;;;;;;27.57;14.70;;;6.30;90.50;;;;;;4332798;33;20196;-65
2021/03/01 10:26:14;;;;;;;23.03;13.90;;;6.30;91.00;;;;;;4334441;33;20165;-65
2021/03/01 10:28:56;;;;;;;26.20;14.17;;;6.60;90.60;;;;;;4333590;33;20221;-66
2021/03/01 10:31:25;;;;;;;24.90;13.73;;;6.60;90.10;;;;;;4334072;33;20165;-65
2021/03/01 10:33:53;;;;;;;23.40;13.53;;;6.70;90.40;;;;;;4337724;33;20218;-66
2021/03/01 10:36:51;;;;;;;24.87;13.73;;;6.90;90.20;;;;;;4336336;33;20247;-65
2021/03/01 10:39:22;;;;;;;24.87;13.33;;;6.80;89.20;;;;;;4335989;33;20202;-64
2021/03/01 10:41:57;;;;;;;24.33;13.80;;;6.70;89.90;;;;;;4334870;33;20221;-66
2021/03/01 10:44:49;;;;;;;22.70;11.83;;;6.80;90.20;;;;;;4333182;33;20224;-63
2021/03/01 10:47:17;;;;;;;25.70;12.70;;;7.00;90.10;;;;;;4334510;33;20601;-66
2021/03/01 10:49:51;;;;;;;25.07;13.17;;;7.20;88.60;;;;;;4334166;33;20660;-65
2021/03/01 10:52:20;;;;;;;26.00;13.40;;;7.40;88.90;;;;;;4336144;33;20219;-64
2021/03/01 10:54:51;;;;;;;20.57;12.37;;;7.70;87.20;;;;;;4331710;33;20555;-65
2021/03/01 10:57:27;;;;;;;20.40;12.17;;;8.00;86.30;;;;;;4332555;33;20195;-65
2021/03/01 10:59:55;;;;;;;22.20;12.77;;;8.10;85.60;;;;;;4332293;33;20265;-66
2021/03/01 11:02:25;;;;;;;22.30;12.10;;;8.30;85.10;;;;;;4338791;33;20157;-64
2021/03/01 11:04:52;;;;;;;18.30;11.40;;;8.50;84.30;;;;;;4339055;33;20215;-63
2021/03/01 11:07:19;;;;;;;19.87;11.43;;;8.80;84.00;;;;;;4336093;33;20152;-64
2021/03/01 11:09:46;;;;;;;17.40;11.70;;;9.00;82.90;;;;;;4336941;33;20262;-64
2021/03/01 11:12:15;;;;;;;23.73;12.27;;;9.40;82.80;;;;;;4340998;33;20212;-65
2021/03/01 11:14:43;;;;;;;22.83;12.63;;;9.70;80.90;;;;;;4334521;33;20254;-67
2021/03/01 11:17:11;;;;;;;17.83;11.53;;;9.80;78.30;;;;;;4340104;33;20246;-67
2021/03/01 11:19:38;;;;;;;21.10;10.93;;;9.80;79.50;;;;;;4338233;33;20585;-66
2021/03/01 11:22:13;;;;;;;22.57;11.37;;;9.70;78.30;;;;;;4337864;33;20221;-67
2021/03/01 11:24:39;;;;;;;19.93;11.43;;;9.70;79.20;;;;;;4340745;33;20195;-65
2021/03/01 11:27:05;;;;;;;19.40;11.90;;;9.80;78.90;;;;;;4336810;33;20157;-66
2021/03/01 11:29:33;;;;;;;18.87;11.20;;;9.80;78.10;;;;;;4338811;33;20232;-66
2021/03/01 11:32:01;;;;;;;19.33;11.23;;;9.70;79.30;;;;;;4334719;33;20263;-68
2021/03/01 11:34:28;;;;;;;23.87;11.90;;;9.80;79.40;;;;;;4336792;33;20192;-64
2021/03/01 11:36:54;;;;;;;20.97;11.70;;;10.10;78.50;;;;;;4337725;33;20161;-65
2021/03/01 11:39:24;;;;;;;22.67;12.70;;;10.20;77.70;;;;;;4336846;33;20184;-66
2021/03/01 11:41:50;;;;;;;24.23;12.87;;;10.20;77.90;;;;;;4338314;33;20158;-66
2021/03/01 11:44:17;;;;;;;21.90;12.20;;;10.20;77.70;;;;;;4338871;33;20243;-66
2021/03/01 11:46:45;;;;;;;25.20;13.73;;;10.30;77.50;;;;;;4333966;33;20242;-65
2021/03/01 11:49:11;;;;;;;25.23;12.57;;;10.10;77.80;;;;;;4334614;33;20659;-66
2021/03/01 11:51:38;;;;;;;24.93;13.13;;;10.00;78.60;;;;;;4335249;33;20637;-65
2021/03/01 11:54:13;;;;;;;23.77;12.83;;;9.80;78.80;;;;;;4335464;33;20176;-65
2021/03/01 11:56:40;;;;;;;23.13;12.73;;;9.80;79.70;;;;;;4337397;33;20228;-67
2021/03/01 11:59:06;;;;;;;24.30;12.83;;;9.80;79.10;;;;;;4334303;33;20196;-65
2021/03/01 12:01:33;;;;;;;23.87;13.43;;;9.60;79.70;;;;;;4337729;33;20652;-66
2021/03/01 12:04:01;;;;;;;23.67;13.13;;;9.50;80.30;;;;;;4337098;33;20229;-66
2021/03/01 12:06:30;;;;;;;23.37;13.20;;;9.10;80.60;;;;;;4337563;33;20188;-65
2021/03/01 12:08:56;;;;;;;24.47;12.70;;;8.80;81.40;;;;;;4337351;33;20266;-66
2021/03/01 12:11:23;;;;;;;24.43;13.43;;;8.50;82.90;;;;;;4334506;33;20199;-65
2021/03/01 12:13:51;;;;;;;25.73;12.27;;;8.40;83.70;;;;;;4338843;33;20195;-67
2021/03/01 12:16:19;;;;;;;23.80;12.37;;;8.00;84.70;;;;;;4337335;33;20536;-67
2021/03/01 12:19:02;;;;;;;26.57;12.83;;;7.80;85.90;;;;;;4335595;33;20568;-67
2021/03/01 12:21:29;;;;;;;28.10;14.00;;;7.70;86.40;;;;;;4339539;33;20626;-67
2021/03/01 12:23:55;;;;;;;27.90;12.87;;;7.60;87.20;;;;;;4334814;33;20494;-66
2021/03/01 12:26:22;;;;;;;26.40;13.57;;;7.70;86.80;;;;;;4335790;33;20188;-67
2021/03/01 12:28:48;;;;;;;55.87;17.37;;;7.70;87.40;;;;;;4335225;33;20188;-66
2021/03/01 12:31:14;;;;;;;28.07;13.57;;;7.70;87.70;;;;;;4338515;33;20166;-66
2021/03/01 12:33:41;;;;;;;23.87;13.40;;;7.60;87.40;;;;;;4335871;33;20157;-65
2021/03/01 12:36:12;;;;;;;24.50;12.87;;;7.70;87.90;;;;;;4338059;33;20263;-66
2021/03/01 12:38:38;;;;;;;25.27;13.47;;;7.70;87.60;;;;;;4338318;33;20189;-67
2021/03/01 12:41:05;;;;;;;28.00;14.23;;;7.70;87.40;;;;;;4335623;33;20822;-66
2021/03/01 12:43:36;;;;;;;24.53;14.17;;;7.80;87.50;;;;;;4337872;33;20152;-66
2021/03/01 12:46:03;;;;;;;23.30;12.67;;;7.80;87.20;;;;;;4340476;33;20166;-67
2021/03/01 12:48:29;;;;;;;22.00;12.60;;;7.80;87.10;;;;;;4337988;33;20485;-66
2021/03/01 12:50:58;;;;;;;23.63;12.27;;;7.80;86.20;;;;;;4335877;33;20282;-65
2021/03/01 12:53:28;;;;;;;21.63;11.73;;;7.90;86.50;;;;;;4333375;33;20165;-66
2021/03/01 12:56:10;;;;;;;28.90;12.13;;;7.90;85.90;;;;;;4336236;33;20215;-67
2021/03/01 12:58:37;;;;;;;21.20;11.63;;;7.90;85.70;;;;;;4331238;33;20629;-65